createdAt,value
2023-03-23T00:02:08.305Z,13.60
2023-03-23T00:04:38.669Z,13.70
2023-03-23T00:07:09.031Z,13.60
2023-03-23T00:09:42.212Z,13.60
2023-03-23T00:12:16.789Z,13.70
2023-03-23T00:14:48.038Z,13.70
2023-03-23T00:17:24.684Z,13.70
2023-03-23T00:19:55.403Z,13.70
2023-03-23T00:22:26.417Z,13.70
2023-03-23T00:24:57.035Z,13.70
2023-03-23T00:27:28.022Z,13.70
2023-03-23T00:29:58.479Z,13.70
2023-03-23T00:32:31.495Z,13.70
2023-03-23T00:35:02.740Z,13.70
2023-03-23T00:37:34.296Z,13.70
2023-03-23T00:40:10.768Z,13.70
2023-03-23T00:42:41.837Z,13.70
2023-03-23T00:45:14.642Z,13.70
2023-03-23T00:47:48.364Z,13.70
2023-03-23T00:50:22.234Z,13.70
2023-03-23T00:52:58.044Z,13.70
2023-03-23T00:55:28.965Z,13.70
2023-03-23T00:57:59.430Z,13.70
2023-03-23T01:00:30.316Z,13.70
2023-03-23T01:03:04.203Z,13.70
2023-03-23T01:05:38.966Z,13.70
2023-03-23T01:08:11.605Z,13.70
2023-03-23T01:10:42.302Z,13.70
2023-03-23T01:13:14.711Z,13.60
2023-03-23T01:15:46.381Z,13.70
2023-03-23T01:18:19.465Z,13.70
2023-03-23T01:21:08.870Z,13.70
2023-03-23T01:23:39.641Z,13.70
2023-03-23T01:26:11.229Z,13.70
2023-03-23T01:28:42.901Z,13.70
2023-03-23T01:31:16.154Z,13.70
2023-03-23T01:33:52.028Z,13.70
2023-03-23T01:36:25.497Z,13.70
2023-03-23T01:38:56.342Z,13.70
2023-03-23T01:41:27.039Z,13.70
2023-03-23T01:44:03.976Z,13.70
2023-03-23T01:46:41.127Z,13.60
2023-03-23T01:49:19.326Z,13.70
2023-03-23T01:51:52.726Z,13.70
2023-03-23T01:54:25.261Z,13.70
2023-03-23T01:57:00.913Z,13.70
2023-03-23T01:59:33.054Z,13.70
2023-03-23T02:02:22.266Z,13.70
2023-03-23T02:04:58.705Z,13.70
2023-03-23T02:07:30.234Z,13.70
2023-03-23T02:10:03.552Z,13.70
2023-03-23T02:12:38.479Z,13.70
2023-03-23T02:15:10.534Z,13.70
2023-03-23T02:17:44.977Z,13.70
2023-03-23T02:20:32.430Z,13.70
2023-03-23T02:23:47.240Z,13.70
2023-03-23T02:26:32.842Z,13.70
2023-03-23T02:29:29.565Z,13.70
2023-03-23T02:32:17.142Z,13.70
2023-03-23T02:34:54.962Z,13.70
2023-03-23T02:37:31.743Z,13.70
2023-03-23T02:40:12.392Z,13.70
2023-03-23T02:42:46.908Z,13.70
2023-03-23T02:45:19.917Z,13.70
2023-03-23T02:47:54.538Z,13.70
2023-03-23T02:50:31.548Z,13.70
2023-03-23T02:53:03.413Z,13.70
2023-03-23T02:55:35.372Z,13.70
2023-03-23T02:58:08.612Z,13.60
2023-03-23T03:00:40.866Z,13.70
2023-03-23T03:03:17.901Z,13.60
2023-03-23T03:06:04.125Z,13.70
2023-03-23T03:08:41.233Z,13.60
2023-03-23T03:11:15.762Z,13.70
2023-03-23T03:13:52.680Z,13.70
2023-03-23T03:16:31.892Z,13.70
2023-03-23T03:19:07.261Z,13.60
2023-03-23T03:21:44.958Z,13.70
2023-03-23T03:24:21.929Z,13.60
2023-03-23T03:26:59.101Z,13.60
2023-03-23T03:29:42.563Z,13.60
2023-03-23T03:32:16.993Z,13.60
2023-03-23T03:34:48.765Z,13.60
2023-03-23T03:37:23.003Z,13.60
2023-03-23T03:39:54.908Z,13.60
2023-03-23T03:42:26.219Z,13.60
2023-03-23T03:44:57.494Z,13.60
2023-03-23T03:47:27.983Z,13.60
2023-03-23T03:49:59.395Z,13.60
2023-03-23T03:52:32.929Z,13.60
2023-03-23T03:55:03.481Z,13.60
2023-03-23T03:57:36.932Z,13.60
2023-03-23T04:00:17.006Z,13.60
2023-03-23T04:02:55.856Z,13.60
2023-03-23T04:05:43.122Z,13.60
2023-03-23T04:08:16.467Z,13.60
2023-03-23T04:10:47.565Z,13.60
2023-03-23T04:13:18.119Z,13.60
2023-03-23T04:16:11.260Z,13.60
2023-03-23T04:18:45.947Z,13.50
2023-03-23T04:21:24.409Z,13.60
2023-03-23T04:24:00.829Z,13.60
2023-03-23T04:26:33.845Z,13.50
2023-03-23T04:29:14.304Z,13.50
2023-03-23T04:31:53.969Z,13.50
2023-03-23T04:34:37.680Z,13.50
2023-03-23T04:37:09.504Z,13.50
2023-03-23T04:39:46.546Z,13.50
2023-03-23T04:42:19.742Z,13.50
2023-03-23T04:45:06.883Z,13.60
2023-03-23T04:47:43.519Z,13.60
2023-03-23T04:50:26.015Z,13.50
2023-03-23T04:52:58.812Z,13.50
2023-03-23T04:55:32.366Z,13.50
2023-03-23T04:58:04.113Z,13.50
2023-03-23T05:00:38.137Z,13.50
2023-03-23T05:03:11.012Z,13.50
2023-03-23T05:05:41.761Z,13.60
2023-03-23T05:08:12.636Z,13.50
2023-03-23T05:10:55.149Z,13.60
2023-03-23T05:13:28.801Z,13.50
2023-03-23T05:16:01.822Z,13.50
2023-03-23T05:18:33.085Z,13.50
2023-03-23T05:21:07.177Z,13.40
2023-03-23T05:23:42.193Z,13.50
2023-03-23T05:26:22.814Z,13.40
2023-03-23T05:28:58.651Z,13.50
2023-03-23T05:31:49.304Z,13.40
2023-03-23T05:34:20.093Z,13.30
2023-03-23T05:36:56.567Z,13.40
2023-03-23T05:39:38.783Z,13.20
2023-03-23T05:42:35.527Z,13.30
2023-03-23T05:45:14.807Z,13.30
2023-03-23T05:47:46.729Z,13.30
2023-03-23T05:50:23.029Z,13.30
2023-03-23T05:52:53.432Z,13.20
2023-03-23T05:55:26.295Z,13.20
2023-03-23T05:58:10.172Z,13.20
2023-03-23T06:00:43.081Z,13.30
2023-03-23T06:03:24.165Z,13.20
2023-03-23T06:06:06.612Z,13.20
2023-03-23T06:08:45.905Z,13.20
2023-03-23T06:11:16.348Z,13.20
2023-03-23T06:14:00.328Z,13.20
2023-03-23T06:16:31.244Z,13.20
2023-03-23T06:19:05.221Z,13.20
2023-03-23T06:21:41.728Z,13.20
2023-03-23T06:24:22.499Z,13.20
2023-03-23T06:26:52.940Z,13.10
2023-03-23T06:29:28.545Z,13.10
2023-03-23T06:32:03.560Z,13.10
2023-03-23T06:34:36.421Z,13.20
2023-03-23T06:37:25.736Z,13.20
2023-03-23T06:40:05.607Z,13.20
2023-03-23T06:42:41.386Z,13.20
2023-03-23T06:45:33.429Z,13.20
2023-03-23T06:48:33.362Z,13.20
2023-03-23T06:51:04.593Z,13.20
2023-03-23T06:53:36.563Z,13.10
2023-03-23T06:56:09.496Z,13.20
2023-03-23T06:58:40.601Z,13.20
2023-03-23T07:01:13.938Z,13.20
2023-03-23T07:03:50.234Z,13.20
2023-03-23T07:06:26.524Z,13.20
2023-03-23T07:09:01.772Z,13.20
2023-03-23T07:11:34.235Z,13.20
2023-03-23T07:14:11.502Z,13.20
2023-03-23T07:16:45.196Z,13.10
2023-03-23T07:19:15.772Z,13.00
2023-03-23T07:21:46.404Z,13.00
2023-03-23T07:24:18.780Z,13.00
2023-03-23T07:27:06.515Z,13.00
2023-03-23T07:29:39.856Z,12.70
2023-03-23T07:32:18.884Z,12.60
2023-03-23T07:34:49.682Z,12.40
2023-03-23T07:37:38.109Z,12.40
2023-03-23T07:40:15.814Z,12.30
2023-03-23T07:42:56.430Z,12.30
2023-03-23T07:45:38.350Z,12.10
2023-03-23T07:48:19.614Z,12.10
2023-03-23T07:50:52.900Z,12.00
2023-03-23T07:53:25.542Z,12.10
2023-03-23T07:56:04.931Z,12.10
2023-03-23T07:58:56.366Z,12.10
2023-03-23T08:01:27.614Z,12.10
2023-03-23T08:04:28.504Z,12.10
2023-03-23T08:07:19.669Z,12.20
2023-03-23T08:09:51.239Z,12.20
2023-03-23T08:12:58.931Z,12.20
2023-03-23T08:15:46.654Z,12.30
2023-03-23T08:18:17.171Z,12.30
2023-03-23T08:21:16.796Z,12.40
2023-03-23T08:24:08.260Z,12.30
2023-03-23T08:26:57.111Z,12.30
2023-03-23T08:29:49.305Z,12.40
2023-03-23T08:32:50.937Z,12.40
2023-03-23T08:35:42.577Z,12.30
2023-03-23T08:38:40.144Z,12.30
2023-03-23T08:41:28.576Z,12.30
2023-03-23T08:44:16.817Z,12.30
2023-03-23T08:46:58.720Z,12.20
2023-03-23T08:49:53.898Z,12.20
2023-03-23T08:52:55.423Z,12.10
2023-03-23T08:55:48.790Z,12.20
2023-03-23T08:58:19.706Z,12.10
2023-03-23T09:01:02.386Z,12.10
2023-03-23T09:03:53.277Z,12.20
2023-03-23T09:06:42.816Z,12.10
2023-03-23T09:09:13.431Z,12.10
2023-03-23T09:11:46.600Z,12.20
2023-03-23T09:14:17.324Z,12.20
2023-03-23T09:16:47.912Z,12.20
2023-03-23T09:19:19.290Z,12.20
2023-03-23T09:21:50.583Z,12.20
2023-03-23T09:24:21.281Z,12.30
2023-03-23T09:26:54.488Z,12.20
2023-03-23T09:29:25.294Z,12.20
2023-03-23T09:31:55.836Z,12.20
2023-03-23T09:34:27.097Z,12.30
2023-03-23T09:36:58.260Z,12.20
2023-03-23T09:39:28.813Z,12.30
2023-03-23T09:42:35.676Z,12.30
2023-03-23T09:45:17.490Z,12.30
2023-03-23T09:48:00.921Z,12.30
2023-03-23T09:50:35.041Z,12.40
2023-03-23T09:53:13.887Z,12.30
2023-03-23T09:55:44.794Z,12.30
2023-03-23T09:58:24.860Z,12.40
2023-03-23T10:01:02.225Z,12.50
2023-03-23T10:03:41.033Z,12.60
2023-03-23T10:06:16.763Z,12.70
2023-03-23T10:08:57.012Z,12.70
2023-03-23T10:11:41.886Z,12.80
2023-03-23T10:14:41.755Z,12.90
2023-03-23T10:17:18.043Z,12.90
2023-03-23T10:19:56.622Z,13.00
2023-03-23T10:22:30.934Z,13.00
2023-03-23T10:25:09.978Z,13.00
2023-03-23T10:27:47.350Z,13.10
2023-03-23T10:30:28.757Z,13.20
2023-03-23T10:33:05.472Z,13.20
2023-03-23T10:35:41.295Z,13.20
2023-03-23T10:38:18.997Z,13.40
2023-03-23T10:40:54.878Z,13.40
2023-03-23T10:43:25.991Z,13.50
2023-03-23T10:46:05.472Z,13.50
2023-03-23T10:48:41.084Z,13.60
2023-03-23T10:51:18.039Z,13.60
2023-03-23T10:53:50.740Z,13.70
2023-03-23T10:56:28.531Z,13.80
2023-03-23T10:58:59.935Z,13.80
2023-03-23T11:01:38.991Z,13.90
2023-03-23T11:04:16.590Z,14.00
2023-03-23T11:06:50.854Z,13.90
2023-03-23T11:09:23.436Z,14.10
2023-03-23T11:12:01.895Z,14.10
2023-03-23T11:14:35.657Z,14.10
2023-03-23T11:17:15.937Z,14.00
2023-03-23T11:19:47.026Z,14.00
2023-03-23T11:22:23.996Z,14.10
2023-03-23T11:24:58.264Z,14.10
2023-03-23T11:27:29.244Z,14.10
2023-03-23T11:30:03.014Z,14.10
2023-03-23T11:32:37.310Z,14.20
2023-03-23T11:35:16.199Z,14.30
2023-03-23T11:37:49.041Z,14.30
2023-03-23T11:40:21.409Z,14.30
2023-03-23T11:42:53.698Z,14.40
2023-03-23T11:45:26.494Z,14.60
2023-03-23T11:48:17.619Z,14.70
2023-03-23T11:50:55.317Z,14.70
2023-03-23T11:53:38.244Z,14.70
2023-03-23T11:56:19.062Z,14.70
2023-03-23T11:58:50.017Z,14.80
2023-03-23T12:01:32.651Z,14.90
2023-03-23T12:04:20.645Z,15.00
2023-03-23T12:06:58.960Z,15.30
2023-03-23T12:09:43.314Z,15.30
2023-03-23T12:12:26.027Z,15.40
2023-03-23T12:15:05.394Z,15.20
2023-03-23T12:17:47.476Z,15.20
2023-03-23T12:20:37.751Z,15.20
2023-03-23T12:23:25.783Z,15.10
2023-03-23T12:26:15.010Z,15.20
2023-03-23T12:29:27.494Z,15.20
2023-03-23T12:32:12.378Z,15.20
2023-03-23T12:34:51.123Z,15.30
2023-03-23T12:37:47.672Z,15.50
2023-03-23T12:40:51.275Z,15.50
2023-03-23T12:43:29.756Z,15.50
2023-03-23T12:46:12.669Z,15.50
2023-03-23T12:48:45.824Z,15.50
2023-03-23T12:51:23.710Z,15.40
2023-03-23T12:54:03.565Z,15.40
2023-03-23T12:56:39.196Z,15.70
2023-03-23T12:59:17.967Z,15.70
2023-03-23T13:01:52.776Z,15.60
2023-03-23T13:04:27.504Z,15.70
2023-03-23T13:06:58.556Z,15.70
2023-03-23T13:09:39.612Z,15.60
2023-03-23T13:12:14.792Z,15.50
2023-03-23T13:14:52.309Z,15.50
2023-03-23T13:17:35.117Z,15.70
2023-03-23T13:20:38.560Z,15.90
2023-03-23T13:23:15.888Z,16.20
2023-03-23T13:25:57.808Z,16.10
2023-03-23T13:28:30.481Z,16.10
2023-03-23T13:31:07.506Z,16.20
2023-03-23T13:33:39.928Z,16.40
2023-03-23T13:36:18.994Z,16.60
2023-03-23T13:38:52.099Z,16.70
2023-03-23T13:41:26.131Z,16.70
2023-03-23T13:44:08.546Z,16.90
2023-03-23T13:46:39.224Z,17.00
2023-03-23T13:49:23.531Z,16.90
2023-03-23T13:52:06.366Z,17.00
2023-03-23T13:54:45.647Z,16.80
2023-03-23T13:57:40.735Z,16.70
2023-03-23T14:00:41.449Z,16.50
2023-03-23T14:03:19.176Z,16.40
2023-03-23T14:05:52.731Z,16.40
2023-03-23T14:08:29.583Z,16.30
2023-03-23T14:11:04.791Z,16.30
2023-03-23T14:13:42.733Z,16.30
2023-03-23T14:16:20.739Z,16.20
2023-03-23T14:18:58.224Z,16.10
2023-03-23T14:21:39.551Z,16.10
2023-03-23T14:24:20.931Z,16.10
2023-03-23T14:26:53.478Z,16.00
2023-03-23T14:29:28.166Z,16.00
2023-03-23T14:32:01.526Z,15.90
2023-03-23T14:34:34.644Z,15.90
2023-03-23T14:37:06.234Z,15.90
2023-03-23T14:39:38.570Z,15.90
2023-03-23T14:42:15.153Z,15.90
2023-03-23T14:44:50.781Z,15.90
2023-03-23T14:47:24.439Z,15.90
2023-03-23T14:49:59.130Z,16.00
2023-03-23T14:52:31.840Z,16.00
2023-03-23T14:55:16.318Z,15.90
2023-03-23T14:57:47.547Z,15.90
2023-03-23T15:00:27.132Z,15.90
2023-03-23T15:03:00.777Z,15.90
2023-03-23T15:05:35.986Z,15.90
2023-03-23T15:08:10.311Z,15.90
2023-03-23T15:10:40.872Z,15.90
2023-03-23T15:13:16.268Z,15.90
2023-03-23T15:15:49.519Z,16.00
2023-03-23T15:18:34.461Z,16.00
2023-03-23T15:21:13.973Z,16.10
2023-03-23T15:23:47.879Z,16.20
2023-03-23T15:26:33.598Z,16.20
2023-03-23T15:29:17.868Z,16.20
2023-03-23T15:32:00.677Z,16.10
2023-03-23T15:34:40.339Z,16.10
2023-03-23T15:37:23.547Z,16.10
2023-03-23T15:39:55.638Z,16.20
2023-03-23T15:42:29.195Z,16.10
2023-03-23T15:45:02.787Z,16.10
2023-03-23T15:47:49.669Z,16.10
2023-03-23T15:50:21.722Z,16.10
2023-03-23T15:52:52.638Z,16.10
2023-03-23T15:55:28.297Z,16.10
2023-03-23T15:58:01.175Z,16.00
2023-03-23T16:00:32.795Z,16.00
2023-03-23T16:03:19.277Z,16.00
2023-03-23T16:05:49.958Z,15.90
2023-03-23T16:08:20.382Z,15.90
2023-03-23T16:10:51.676Z,15.90
2023-03-23T16:13:23.224Z,15.90
2023-03-23T16:15:53.967Z,15.90
2023-03-23T16:18:27.022Z,15.90
2023-03-23T16:20:57.907Z,15.90
2023-03-23T16:23:28.380Z,15.80
2023-03-23T16:25:58.897Z,15.90
2023-03-23T16:28:29.471Z,15.90
2023-03-23T16:31:00.233Z,15.90
2023-03-23T16:33:33.470Z,15.90
2023-03-23T16:36:04.098Z,15.90
2023-03-23T16:38:49.288Z,15.90
2023-03-23T16:41:20.832Z,16.00
2023-03-23T16:43:51.591Z,16.00
2023-03-23T16:46:22.087Z,16.00
2023-03-23T16:48:55.161Z,16.10
2023-03-23T16:51:25.705Z,16.40
2023-03-23T16:53:56.272Z,16.50
2023-03-23T16:56:27.318Z,16.50
2023-03-23T16:58:57.748Z,16.50
2023-03-23T17:01:28.447Z,16.40
2023-03-23T17:04:01.687Z,16.30
2023-03-23T17:06:32.275Z,16.30
2023-03-23T17:09:03.078Z,16.30
2023-03-23T17:11:33.619Z,16.30
2023-03-23T17:14:04.206Z,16.20
2023-03-23T17:16:34.781Z,16.20
2023-03-23T17:19:08.359Z,16.10
2023-03-23T17:21:38.992Z,16.10
2023-03-23T17:24:10.042Z,16.10
2023-03-23T17:26:40.696Z,16.00
2023-03-23T17:29:11.123Z,16.00
2023-03-23T17:31:42.271Z,16.00
2023-03-23T17:34:16.331Z,15.90
2023-03-23T17:36:48.154Z,15.90
2023-03-23T17:39:21.528Z,15.90
2023-03-23T17:41:52.094Z,15.80
2023-03-23T17:44:22.594Z,15.80
2023-03-23T17:46:53.013Z,15.80
2023-03-23T17:49:26.310Z,15.80
2023-03-23T17:51:57.557Z,15.80
2023-03-23T17:54:29.759Z,15.70
2023-03-23T17:57:04.107Z,15.70
2023-03-23T17:59:34.706Z,15.70
2023-03-23T18:02:05.352Z,15.70
2023-03-23T18:04:38.386Z,15.70
2023-03-23T18:07:08.982Z,15.70
2023-03-23T18:09:39.464Z,15.60
2023-03-23T18:12:10.516Z,15.70
2023-03-23T18:14:41.188Z,15.70
2023-03-23T18:17:11.599Z,15.70
2023-03-23T18:19:44.586Z,15.70
2023-03-23T18:22:14.995Z,15.70
2023-03-23T18:24:45.379Z,15.60
2023-03-23T18:27:16.108Z,15.60
2023-03-23T18:29:46.872Z,15.60
2023-03-23T18:32:17.365Z,15.60
2023-03-23T18:34:50.776Z,15.60
2023-03-23T18:37:22.736Z,15.60
2023-03-23T18:39:53.953Z,15.60
2023-03-23T18:42:25.291Z,15.60
2023-03-23T18:45:00.056Z,15.60
2023-03-23T18:47:30.607Z,15.60
2023-03-23T18:50:03.701Z,15.60
2023-03-23T18:52:34.398Z,15.60
2023-03-23T18:55:04.890Z,15.60
2023-03-23T18:57:35.547Z,15.60
2023-03-23T19:00:06.322Z,15.60
2023-03-23T19:02:39.696Z,15.50
2023-03-23T19:05:13.785Z,15.50
2023-03-23T19:07:44.233Z,15.50
2023-03-23T19:10:14.904Z,15.50
2023-03-23T19:12:47.311Z,15.50
2023-03-23T19:15:19.328Z,15.50
2023-03-23T19:17:55.953Z,15.40
2023-03-23T19:23:03.849Z,15.40
2023-03-23T19:25:34.229Z,15.30
2023-03-23T19:30:39.151Z,15.30
2023-03-23T19:33:09.696Z,15.20
2023-03-23T19:35:44.598Z,15.30
2023-03-23T19:38:15.195Z,15.30
2023-03-23T19:40:52.159Z,15.30
2023-03-23T19:43:22.962Z,15.20
2023-03-23T19:45:53.579Z,15.20
2023-03-23T19:48:24.588Z,15.20
2023-03-23T19:50:57.850Z,15.20
2023-03-23T19:53:28.465Z,15.10
2023-03-23T19:55:59.013Z,15.20
2023-03-23T20:01:03.207Z,15.10
2023-03-23T20:06:11.272Z,15.00
2023-03-23T20:08:43.755Z,15.00
2023-03-23T20:11:16.195Z,15.00
2023-03-23T20:13:49.075Z,15.00
2023-03-23T20:16:21.391Z,14.90
2023-03-23T20:18:53.585Z,14.90
2023-03-23T20:21:28.037Z,14.90
2023-03-23T20:24:00.407Z,14.90
2023-03-23T20:26:33.297Z,14.90
2023-03-23T20:29:04.738Z,14.80
2023-03-23T20:31:37.175Z,14.80
2023-03-23T20:34:09.768Z,14.70
2023-03-23T20:36:46.961Z,14.70
2023-03-23T20:39:21.613Z,14.70
2023-03-23T20:41:53.259Z,14.60
2023-03-23T20:44:25.491Z,14.60
2023-03-23T20:46:56.966Z,14.60
2023-03-23T20:49:28.806Z,14.60
2023-03-23T20:52:02.122Z,14.50
2023-03-23T20:54:33.840Z,14.50
2023-03-23T20:57:04.330Z,14.50
2023-03-23T20:59:34.812Z,14.40
2023-03-23T21:02:05.673Z,14.30
2023-03-23T21:04:37.558Z,14.30
2023-03-23T21:07:11.036Z,14.30
2023-03-23T21:09:41.785Z,14.30
2023-03-23T21:12:13.095Z,14.30
2023-03-23T21:14:45.125Z,14.30
2023-03-23T21:17:15.939Z,14.30
2023-03-23T21:19:47.388Z,14.20
2023-03-23T21:22:21.677Z,14.20
2023-03-23T21:24:53.749Z,14.20
2023-03-23T21:27:24.134Z,14.20
2023-03-23T21:29:54.612Z,14.20
2023-03-23T21:32:25.027Z,14.20
2023-03-23T21:34:58.778Z,14.00
2023-03-23T21:37:32.031Z,14.10
2023-03-23T21:40:02.544Z,14.00
2023-03-23T21:42:33.119Z,14.10
2023-03-23T21:45:06.279Z,14.00
2023-03-23T21:47:36.772Z,14.00
2023-03-23T21:50:08.994Z,14.00
2023-03-23T21:52:43.590Z,14.00
2023-03-23T21:55:14.445Z,14.00
2023-03-23T21:57:44.838Z,14.00
2023-03-23T22:00:17.560Z,13.90
2023-03-23T22:02:48.081Z,14.00
2023-03-23T22:05:19.085Z,13.90
2023-03-23T22:07:52.412Z,14.00
2023-03-23T22:10:23.356Z,13.90
2023-03-23T22:12:55.601Z,13.90
2023-03-23T22:15:28.335Z,13.90
2023-03-23T22:17:59.360Z,13.90
2023-03-23T22:20:30.249Z,13.80
2023-03-23T22:23:03.453Z,13.90
2023-03-23T22:25:34.147Z,13.80
2023-03-23T22:28:04.745Z,13.80
2023-03-23T22:30:36.028Z,13.80
2023-03-23T22:33:06.687Z,13.80
2023-03-23T22:35:37.493Z,13.80
2023-03-23T22:38:10.630Z,13.90
2023-03-23T22:40:42.833Z,13.80
2023-03-23T22:43:13.621Z,13.80
2023-03-23T22:45:44.358Z,13.80
2023-03-23T22:48:14.886Z,13.80
2023-03-23T22:50:45.676Z,13.80
2023-03-23T22:53:19.955Z,13.80
2023-03-23T22:55:52.498Z,13.80
2023-03-23T22:58:23.088Z,13.80
2023-03-23T23:01:03.095Z,13.80
2023-03-23T23:03:34.717Z,13.80
2023-03-23T23:06:12.911Z,13.80
2023-03-23T23:08:53.098Z,13.80
2023-03-23T23:11:26.349Z,13.80
2023-03-23T23:13:56.931Z,13.70
2023-03-23T23:16:29.004Z,13.80
2023-03-23T23:18:59.912Z,13.70
2023-03-23T23:21:30.464Z,13.70
2023-03-23T23:24:03.939Z,13.70
2023-03-23T23:26:35.209Z,13.70
2023-03-23T23:29:05.799Z,13.70
2023-03-23T23:31:36.647Z,13.70
2023-03-23T23:34:07.971Z,13.70
2023-03-23T23:36:38.685Z,13.70
2023-03-23T23:39:12.234Z,13.70
2023-03-23T23:41:42.850Z,13.60
2023-03-23T23:44:13.411Z,13.60
2023-03-23T23:46:44.085Z,13.70
2023-03-23T23:49:15.317Z,13.70
2023-03-23T23:51:46.112Z,13.70
2023-03-23T23:54:23.287Z,13.70
2023-03-23T23:56:53.929Z,13.70
2023-03-23T23:59:24.503Z,13.70
